sensor_id;sensor_type;location;lat;lon;timestamp;temperature;humidity
12164;DHT22;6145;50.192;10.064;2023-09-19T00:41:16;18.20;92.00
12164;DHT22;6145;50.192;10.064;2023-09-19T01:00:35;18.00;92.40
12164;DHT22;6145;50.192;10.064;2023-09-19T01:03:02;17.90;92.50
12164;DHT22;6145;50.192;10.064;2023-09-19T01:05:29;17.90;92.50
12164;DHT22;6145;50.192;10.064;2023-09-19T01:07:56;17.90;92.50
12164;DHT22;6145;50.192;10.064;2023-09-19T01:10:24;17.90;92.60
12164;DHT22;6145;50.192;10.064;2023-09-19T01:13:03;18.30;92.70
12164;DHT22;6145;50.192;10.064;2023-09-19T01:15:40;18.00;92.60
12164;DHT22;6145;50.192;10.064;2023-09-19T01:18:21;18.00;92.60
12164;DHT22;6145;50.192;10.064;2023-09-19T01:21:00;18.00;92.60
12164;DHT22;6145;50.192;10.064;2023-09-19T01:34:00;17.80;92.80
12164;DHT22;6145;50.192;10.064;2023-09-19T01:36:31;17.80;92.90
12164;DHT22;6145;50.192;10.064;2023-09-19T01:39:02;17.70;93.00
12164;DHT22;6145;50.192;10.064;2023-09-19T01:41:51;17.70;93.10
12164;DHT22;6145;50.192;10.064;2023-09-19T01:51:00;17.70;93.20
12164;DHT22;6145;50.192;10.064;2023-09-19T01:53:33;17.70;93.20
12164;DHT22;6145;50.192;10.064;2023-09-19T01:56:01;17.70;93.20
12164;DHT22;6145;50.192;10.064;2023-09-19T02:01:52;17.90;93.20
12164;DHT22;6145;50.192;10.064;2023-09-19T02:04:19;17.80;93.20
12164;DHT22;6145;50.192;10.064;2023-09-19T02:06:48;17.70;93.10
12164;DHT22;6145;50.192;10.064;2023-09-19T02:09:15;18.00;93.30
12164;DHT22;6145;50.192;10.064;2023-09-19T02:11:42;17.70;93.30
12164;DHT22;6145;50.192;10.064;2023-09-19T02:37:32;17.60;93.70
12164;DHT22;6145;50.192;10.064;2023-09-19T02:40:00;17.60;93.70
12164;DHT22;6145;50.192;10.064;2023-09-19T02:42:44;17.70;93.80
12164;DHT22;6145;50.192;10.064;2023-09-19T02:45:14;17.70;93.70
12164;DHT22;6145;50.192;10.064;2023-09-19T02:47:41;17.70;93.70
12164;DHT22;6145;50.192;10.064;2023-09-19T02:50:14;17.70;93.60
12164;DHT22;6145;50.192;10.064;2023-09-19T02:52:43;17.70;93.60
12164;DHT22;6145;50.192;10.064;2023-09-19T02:55:11;17.80;93.70
12164;DHT22;6145;50.192;10.064;2023-09-19T02:57:40;17.80;93.90
12164;DHT22;6145;50.192;10.064;2023-09-19T03:00:10;17.80;93.60
12164;DHT22;6145;50.192;10.064;2023-09-19T03:02:37;17.80;93.60
12164;DHT22;6145;50.192;10.064;2023-09-19T03:05:06;17.80;93.60
12164;DHT22;6145;50.192;10.064;2023-09-19T03:07:33;17.80;93.70
12164;DHT22;6145;50.192;10.064;2023-09-19T03:10:01;17.80;93.70
12164;DHT22;6145;50.192;10.064;2023-09-19T03:12:30;17.90;93.80
12164;DHT22;6145;50.192;10.064;2023-09-19T03:14:59;17.90;93.90
12164;DHT22;6145;50.192;10.064;2023-09-19T03:17:26;17.90;93.70
12164;DHT22;6145;50.192;10.064;2023-09-19T03:19:53;18.30;93.90
12164;DHT22;6145;50.192;10.064;2023-09-19T03:22:38;17.90;93.60
12164;DHT22;6145;50.192;10.064;2023-09-19T03:25:07;17.90;93.60
12164;DHT22;6145;50.192;10.064;2023-09-19T03:27:34;17.90;93.70
12164;DHT22;6145;50.192;10.064;2023-09-19T03:30:33;17.90;93.70
12164;DHT22;6145;50.192;10.064;2023-09-19T03:33:29;18.00;93.80
12164;DHT22;6145;50.192;10.064;2023-09-19T03:36:01;18.00;93.80
12164;DHT22;6145;50.192;10.064;2023-09-19T03:38:30;17.90;93.80
12164;DHT22;6145;50.192;10.064;2023-09-19T03:44:17;17.90;94.00
12164;DHT22;6145;50.192;10.064;2023-09-19T03:50:03;17.90;94.20
12164;DHT22;6145;50.192;10.064;2023-09-19T03:52:30;17.80;94.30
12164;DHT22;6145;50.192;10.064;2023-09-19T04:32:47;17.70;94.50
12164;DHT22;6145;50.192;10.064;2023-09-19T04:35:16;17.60;94.30
12164;DHT22;6145;50.192;10.064;2023-09-19T04:37:43;17.80;94.50
12164;DHT22;6145;50.192;10.064;2023-09-19T05:07:10;17.40;93.70
12164;DHT22;6145;50.192;10.064;2023-09-19T05:09:37;18.20;94.20
12164;DHT22;6145;50.192;10.064;2023-09-19T05:12:04;17.40;93.90
12164;DHT22;6145;50.192;10.064;2023-09-19T05:14:32;18.00;94.30
12164;DHT22;6145;50.192;10.064;2023-09-19T05:16:59;17.30;94.20
12164;DHT22;6145;50.192;10.064;2023-09-19T05:19:25;17.20;94.30
12164;DHT22;6145;50.192;10.064;2023-09-19T05:21:52;17.20;94.40
12164;DHT22;6145;50.192;10.064;2023-09-19T05:24:21;17.20;94.50
12164;DHT22;6145;50.192;10.064;2023-09-19T05:26:51;17.20;94.50
12164;DHT22;6145;50.192;10.064;2023-09-19T05:29:18;17.30;94.50
12164;DHT22;6145;50.192;10.064;2023-09-19T05:31:45;17.60;94.60
12164;DHT22;6145;50.192;10.064;2023-09-19T05:34:12;17.30;94.50
12164;DHT22;6145;50.192;10.064;2023-09-19T05:36:39;17.30;94.50
12164;DHT22;6145;50.192;10.064;2023-09-19T05:39:06;17.30;94.40
12164;DHT22;6145;50.192;10.064;2023-09-19T05:41:36;17.40;94.50
12164;DHT22;6145;50.192;10.064;2023-09-19T05:44:06;18.40;94.80
12164;DHT22;6145;50.192;10.064;2023-09-19T05:46:33;17.40;94.40
12164;DHT22;6145;50.192;10.064;2023-09-19T05:49:00;17.40;94.20
12164;DHT22;6145;50.192;10.064;2023-09-19T05:51:28;17.30;94.20
12164;DHT22;6145;50.192;10.064;2023-09-19T05:53:55;17.40;94.20
12164;DHT22;6145;50.192;10.064;2023-09-19T05:56:22;17.40;94.30
12164;DHT22;6145;50.192;10.064;2023-09-19T05:59:12;17.50;94.10
12164;DHT22;6145;50.192;10.064;2023-09-19T06:01:41;17.60;94.40
12164;DHT22;6145;50.192;10.064;2023-09-19T06:04:08;17.50;94.40
12164;DHT22;6145;50.192;10.064;2023-09-19T06:06:35;17.60;93.80
12164;DHT22;6145;50.192;10.064;2023-09-19T06:19:05;17.50;93.90
12164;DHT22;6145;50.192;10.064;2023-09-19T06:21:36;17.40;93.90
12164;DHT22;6145;50.192;10.064;2023-09-19T06:24:05;17.50;94.30
12164;DHT22;6145;50.192;10.064;2023-09-19T06:26:32;17.60;94.10
12164;DHT22;6145;50.192;10.064;2023-09-19T06:28:59;17.70;94.30
12164;DHT22;6145;50.192;10.064;2023-09-19T06:31:26;17.80;94.10
12164;DHT22;6145;50.192;10.064;2023-09-19T06:33:53;17.80;94.00
12164;DHT22;6145;50.192;10.064;2023-09-19T06:36:21;18.20;93.90
12164;DHT22;6145;50.192;10.064;2023-09-19T06:38:48;17.90;93.40
12164;DHT22;6145;50.192;10.064;2023-09-19T06:41:17;18.00;93.20
12164;DHT22;6145;50.192;10.064;2023-09-19T06:43:44;18.00;93.10
12164;DHT22;6145;50.192;10.064;2023-09-19T06:46:11;18.00;92.70
12164;DHT22;6145;50.192;10.064;2023-09-19T06:48:41;18.00;92.80
12164;DHT22;6145;50.192;10.064;2023-09-19T06:51:09;18.10;92.60
12164;DHT22;6145;50.192;10.064;2023-09-19T06:53:38;18.00;92.40
12164;DHT22;6145;50.192;10.064;2023-09-19T06:56:05;18.00;92.30
12164;DHT22;6145;50.192;10.064;2023-09-19T06:58:32;18.00;92.50
12164;DHT22;6145;50.192;10.064;2023-09-19T07:01:00;18.10;92.30
12164;DHT22;6145;50.192;10.064;2023-09-19T07:03:27;18.10;92.20
12164;DHT22;6145;50.192;10.064;2023-09-19T07:05:54;18.40;92.10
12164;DHT22;6145;50.192;10.064;2023-09-19T07:08:21;18.30;92.00
12164;DHT22;6145;50.192;10.064;2023-09-19T07:10:50;18.20;91.70
12164;DHT22;6145;50.192;10.064;2023-09-19T07:13:18;18.10;91.80
12164;DHT22;6145;50.192;10.064;2023-09-19T07:15:45;18.10;92.00
12164;DHT22;6145;50.192;10.064;2023-09-19T07:18:13;18.20;92.30
12164;DHT22;6145;50.192;10.064;2023-09-19T07:20:42;18.20;92.30
12164;DHT22;6145;50.192;10.064;2023-09-19T07:23:14;18.30;92.60
12164;DHT22;6145;50.192;10.064;2023-09-19T07:25:41;18.40;92.40
12164;DHT22;6145;50.192;10.064;2023-09-19T07:28:09;18.50;92.20
12164;DHT22;6145;50.192;10.064;2023-09-19T07:30:36;18.50;92.10
12164;DHT22;6145;50.192;10.064;2023-09-19T07:33:04;18.50;91.80
12164;DHT22;6145;50.192;10.064;2023-09-19T07:35:32;18.60;91.80
12164;DHT22;6145;50.192;10.064;2023-09-19T07:37:58;18.60;91.90
12164;DHT22;6145;50.192;10.064;2023-09-19T07:40:27;18.70;91.90
12164;DHT22;6145;50.192;10.064;2023-09-19T07:42:54;18.80;91.90
12164;DHT22;6145;50.192;10.064;2023-09-19T07:45:22;18.80;91.40
12164;DHT22;6145;50.192;10.064;2023-09-19T07:47:51;18.90;91.10
12164;DHT22;6145;50.192;10.064;2023-09-19T07:50:19;18.90;91.20
12164;DHT22;6145;50.192;10.064;2023-09-19T07:52:46;19.20;90.70
12164;DHT22;6145;50.192;10.064;2023-09-19T07:55:13;18.90;90.10
12164;DHT22;6145;50.192;10.064;2023-09-19T07:57:42;19.10;90.40
12164;DHT22;6145;50.192;10.064;2023-09-19T08:00:10;19.00;89.60
12164;DHT22;6145;50.192;10.064;2023-09-19T08:02:39;19.00;90.00
12164;DHT22;6145;50.192;10.064;2023-09-19T08:05:07;19.10;90.10
12164;DHT22;6145;50.192;10.064;2023-09-19T08:07:36;19.10;89.80
12164;DHT22;6145;50.192;10.064;2023-09-19T08:10:04;19.20;89.80
12164;DHT22;6145;50.192;10.064;2023-09-19T08:12:33;19.30;89.40
12164;DHT22;6145;50.192;10.064;2023-09-19T08:15:01;19.10;87.80
12164;DHT22;6145;50.192;10.064;2023-09-19T08:17:29;19.50;87.90
12164;DHT22;6145;50.192;10.064;2023-09-19T08:20:01;19.50;86.70
12164;DHT22;6145;50.192;10.064;2023-09-19T08:22:30;19.60;85.80
12164;DHT22;6145;50.192;10.064;2023-09-19T08:24:57;19.60;85.70
12164;DHT22;6145;50.192;10.064;2023-09-19T08:27:24;19.60;85.60
12164;DHT22;6145;50.192;10.064;2023-09-19T08:29:52;19.70;85.40
12164;DHT22;6145;50.192;10.064;2023-09-19T08:35:55;19.70;84.80
12164;DHT22;6145;50.192;10.064;2023-09-19T08:38:22;19.70;83.80
12164;DHT22;6145;50.192;10.064;2023-09-19T08:40:49;20.50;83.90
12164;DHT22;6145;50.192;10.064;2023-09-19T08:43:16;19.60;83.00
12164;DHT22;6145;50.192;10.064;2023-09-19T08:45:47;19.60;82.70
12164;DHT22;6145;50.192;10.064;2023-09-19T08:48:23;19.60;81.70
12164;DHT22;6145;50.192;10.064;2023-09-19T08:50:54;19.70;81.70
12164;DHT22;6145;50.192;10.064;2023-09-19T08:53:27;19.70;80.60
12164;DHT22;6145;50.192;10.064;2023-09-19T08:55:59;19.60;80.40
12164;DHT22;6145;50.192;10.064;2023-09-19T08:58:33;19.60;80.90
12164;DHT22;6145;50.192;10.064;2023-09-19T09:01:01;19.70;80.50
12164;DHT22;6145;50.192;10.064;2023-09-19T09:03:32;19.70;80.20
12164;DHT22;6145;50.192;10.064;2023-09-19T09:06:01;19.70;80.20
12164;DHT22;6145;50.192;10.064;2023-09-19T09:08:31;19.80;79.70
12164;DHT22;6145;50.192;10.064;2023-09-19T09:10:58;19.80;79.30
12164;DHT22;6145;50.192;10.064;2023-09-19T09:13:27;19.90;78.80
12164;DHT22;6145;50.192;10.064;2023-09-19T09:15:54;19.90;78.20
12164;DHT22;6145;50.192;10.064;2023-09-19T09:18:21;20.00;78.00
12164;DHT22;6145;50.192;10.064;2023-09-19T09:20:49;20.10;78.30
12164;DHT22;6145;50.192;10.064;2023-09-19T09:23:17;20.60;77.60
12164;DHT22;6145;50.192;10.064;2023-09-19T09:25:48;20.30;75.60
12164;DHT22;6145;50.192;10.064;2023-09-19T09:28:20;20.20;76.30
12164;DHT22;6145;50.192;10.064;2023-09-19T09:30:47;20.20;75.60
12164;DHT22;6145;50.192;10.064;2023-09-19T09:33:14;20.20;75.40
12164;DHT22;6145;50.192;10.064;2023-09-19T09:35:49;20.30;75.00
12164;DHT22;6145;50.192;10.064;2023-09-19T09:38:20;20.30;74.70
12164;DHT22;6145;50.192;10.064;2023-09-19T09:40:52;20.30;75.70
12164;DHT22;6145;50.192;10.064;2023-09-19T09:43:27;20.40;74.90
12164;DHT22;6145;50.192;10.064;2023-09-19T09:46:08;20.40;74.80
12164;DHT22;6145;50.192;10.064;2023-09-19T09:48:58;20.60;73.90
12164;DHT22;6145;50.192;10.064;2023-09-19T09:51:44;20.60;72.70
12164;DHT22;6145;50.192;10.064;2023-09-19T09:54:15;20.60;72.90
12164;DHT22;6145;50.192;10.064;2023-09-19T09:56:53;20.70;73.00
12164;DHT22;6145;50.192;10.064;2023-09-19T09:59:45;20.50;70.60
12164;DHT22;6145;50.192;10.064;2023-09-19T10:02:13;20.60;71.50
12164;DHT22;6145;50.192;10.064;2023-09-19T10:04:46;20.70;71.40
12164;DHT22;6145;50.192;10.064;2023-09-19T10:07:25;20.60;70.40
12164;DHT22;6145;50.192;10.064;2023-09-19T10:09:59;20.60;71.50
12164;DHT22;6145;50.192;10.064;2023-09-19T10:12:41;20.70;70.70
12164;DHT22;6145;50.192;10.064;2023-09-19T10:15:11;20.70;68.20
12164;DHT22;6145;50.192;10.064;2023-09-19T10:17:43;20.70;69.70
12164;DHT22;6145;50.192;10.064;2023-09-19T10:20:13;20.60;69.20
12164;DHT22;6145;50.192;10.064;2023-09-19T10:22:57;20.80;68.90
12164;DHT22;6145;50.192;10.064;2023-09-19T10:25:27;21.00;69.30
12164;DHT22;6145;50.192;10.064;2023-09-19T10:27:57;21.00;68.90
12164;DHT22;6145;50.192;10.064;2023-09-19T10:30:25;21.10;68.10
12164;DHT22;6145;50.192;10.064;2023-09-19T10:32:59;21.20;67.90
12164;DHT22;6145;50.192;10.064;2023-09-19T10:35:26;21.20;67.40
12164;DHT22;6145;50.192;10.064;2023-09-19T10:37:55;21.20;66.30
12164;DHT22;6145;50.192;10.064;2023-09-19T10:40:24;21.20;66.20
12164;DHT22;6145;50.192;10.064;2023-09-19T10:43:01;21.30;66.40
12164;DHT22;6145;50.192;10.064;2023-09-19T10:45:30;21.30;66.00
12164;DHT22;6145;50.192;10.064;2023-09-19T10:47:58;21.30;65.90
12164;DHT22;6145;50.192;10.064;2023-09-19T10:50:28;21.30;65.00
12164;DHT22;6145;50.192;10.064;2023-09-19T10:53:00;21.40;64.60
12164;DHT22;6145;50.192;10.064;2023-09-19T10:55:32;21.30;63.90
12164;DHT22;6145;50.192;10.064;2023-09-19T10:58:02;21.50;62.70
12164;DHT22;6145;50.192;10.064;2023-09-19T11:00:51;21.40;63.00
12164;DHT22;6145;50.192;10.064;2023-09-19T11:03:19;21.40;62.30
12164;DHT22;6145;50.192;10.064;2023-09-19T11:06:05;21.40;61.70
12164;DHT22;6145;50.192;10.064;2023-09-19T11:08:55;21.30;60.00
12164;DHT22;6145;50.192;10.064;2023-09-19T11:11:43;21.40;60.70
12164;DHT22;6145;50.192;10.064;2023-09-19T11:14:28;21.30;61.00
12164;DHT22;6145;50.192;10.064;2023-09-19T11:17:30;21.40;61.60
12164;DHT22;6145;50.192;10.064;2023-09-19T11:20:25;21.60;61.20
12164;DHT22;6145;50.192;10.064;2023-09-19T11:23:20;21.50;60.30
12164;DHT22;6145;50.192;10.064;2023-09-19T11:25:52;21.60;60.70
12164;DHT22;6145;50.192;10.064;2023-09-19T11:28:34;21.50;59.90
12164;DHT22;6145;50.192;10.064;2023-09-19T11:34:44;21.80;60.30
12164;DHT22;6145;50.192;10.064;2023-09-19T11:40:45;21.80;59.60
12164;DHT22;6145;50.192;10.064;2023-09-19T11:43:32;21.80;59.50
12164;DHT22;6145;50.192;10.064;2023-09-19T11:46:05;21.80;60.30
12164;DHT22;6145;50.192;10.064;2023-09-19T11:48:32;21.90;60.50
12164;DHT22;6145;50.192;10.064;2023-09-19T11:51:03;21.90;61.00
12164;DHT22;6145;50.192;10.064;2023-09-19T11:53:40;22.00;60.80
12164;DHT22;6145;50.192;10.064;2023-09-19T11:56:09;22.10;61.30
12164;DHT22;6145;50.192;10.064;2023-09-19T11:58:37;22.10;61.20
12164;DHT22;6145;50.192;10.064;2023-09-19T12:01:05;22.20;60.20
12164;DHT22;6145;50.192;10.064;2023-09-19T12:03:36;22.20;59.00
12164;DHT22;6145;50.192;10.064;2023-09-19T12:06:12;22.20;58.30
12164;DHT22;6145;50.192;10.064;2023-09-19T12:08:40;22.10;58.70
12164;DHT22;6145;50.192;10.064;2023-09-19T12:11:15;22.10;59.80
12164;DHT22;6145;50.192;10.064;2023-09-19T12:13:43;22.10;57.20
12164;DHT22;6145;50.192;10.064;2023-09-19T12:16:15;22.10;56.70
12164;DHT22;6145;50.192;10.064;2023-09-19T12:18:42;22.10;57.80
12164;DHT22;6145;50.192;10.064;2023-09-19T12:21:23;22.20;57.90
12164;DHT22;6145;50.192;10.064;2023-09-19T12:24:07;22.10;56.20
12164;DHT22;6145;50.192;10.064;2023-09-19T12:26:42;22.30;55.60
12164;DHT22;6145;50.192;10.064;2023-09-19T12:29:18;22.40;56.00
12164;DHT22;6145;50.192;10.064;2023-09-19T12:31:52;22.60;56.50
12164;DHT22;6145;50.192;10.064;2023-09-19T12:34:27;22.40;56.20
12164;DHT22;6145;50.192;10.064;2023-09-19T12:37:11;22.50;56.10
12164;DHT22;6145;50.192;10.064;2023-09-19T12:39:52;22.50;54.90
12164;DHT22;6145;50.192;10.064;2023-09-19T12:42:22;22.50;54.40
12164;DHT22;6145;50.192;10.064;2023-09-19T12:44:50;22.60;54.10
12164;DHT22;6145;50.192;10.064;2023-09-19T12:47:25;22.50;55.30
12164;DHT22;6145;50.192;10.064;2023-09-19T12:50:09;22.50;55.50
12164;DHT22;6145;50.192;10.064;2023-09-19T12:52:47;22.60;55.70
12164;DHT22;6145;50.192;10.064;2023-09-19T12:55:22;22.70;55.70
12164;DHT22;6145;50.192;10.064;2023-09-19T12:58:07;22.60;55.90
12164;DHT22;6145;50.192;10.064;2023-09-19T13:00:36;22.60;55.50
12164;DHT22;6145;50.192;10.064;2023-09-19T13:03:17;22.90;55.10
12164;DHT22;6145;50.192;10.064;2023-09-19T13:05:54;22.60;54.50
12164;DHT22;6145;50.192;10.064;2023-09-19T13:08:25;22.60;54.80
12164;DHT22;6145;50.192;10.064;2023-09-19T13:11:07;22.70;55.50
12164;DHT22;6145;50.192;10.064;2023-09-19T13:13:39;22.60;55.90
12164;DHT22;6145;50.192;10.064;2023-09-19T13:16:07;22.60;54.60
12164;DHT22;6145;50.192;10.064;2023-09-19T13:18:45;22.60;54.40
12164;DHT22;6145;50.192;10.064;2023-09-19T13:21:13;22.60;55.30
12164;DHT22;6145;50.192;10.064;2023-09-19T13:24:20;22.50;55.20
12164;DHT22;6145;50.192;10.064;2023-09-19T13:26:48;22.70;54.90
12164;DHT22;6145;50.192;10.064;2023-09-19T13:29:15;22.60;55.10
12164;DHT22;6145;50.192;10.064;2023-09-19T13:31:46;22.70;55.20
12164;DHT22;6145;50.192;10.064;2023-09-19T13:34:13;22.70;55.20
12164;DHT22;6145;50.192;10.064;2023-09-19T13:36:41;22.70;55.40
12164;DHT22;6145;50.192;10.064;2023-09-19T13:39:09;22.70;55.40
12164;DHT22;6145;50.192;10.064;2023-09-19T13:41:38;23.10;54.70
12164;DHT22;6145;50.192;10.064;2023-09-19T13:44:06;22.80;54.40
12164;DHT22;6145;50.192;10.064;2023-09-19T13:46:33;22.70;54.10
12164;DHT22;6145;50.192;10.064;2023-09-19T13:49:01;22.60;54.30
12164;DHT22;6145;50.192;10.064;2023-09-19T13:51:30;22.60;54.20
12164;DHT22;6145;50.192;10.064;2023-09-19T13:53:57;22.60;54.90
12164;DHT22;6145;50.192;10.064;2023-09-19T13:56:25;22.70;54.60
12164;DHT22;6145;50.192;10.064;2023-09-19T13:58:54;22.60;54.90
12164;DHT22;6145;50.192;10.064;2023-09-19T14:01:21;22.70;54.80
12164;DHT22;6145;50.192;10.064;2023-09-19T14:03:48;22.80;54.30
12164;DHT22;6145;50.192;10.064;2023-09-19T14:06:16;22.70;55.10
12164;DHT22;6145;50.192;10.064;2023-09-19T14:08:44;22.70;54.40
12164;DHT22;6145;50.192;10.064;2023-09-19T14:11:12;22.70;54.70
12164;DHT22;6145;50.192;10.064;2023-09-19T14:13:39;22.90;55.30
12164;DHT22;6145;50.192;10.064;2023-09-19T14:16:08;22.60;55.50
12164;DHT22;6145;50.192;10.064;2023-09-19T14:18:35;22.60;55.90
12164;DHT22;6145;50.192;10.064;2023-09-19T14:21:03;22.70;56.20
12164;DHT22;6145;50.192;10.064;2023-09-19T14:23:35;22.50;56.00
12164;DHT22;6145;50.192;10.064;2023-09-19T14:26:02;22.80;56.80
12164;DHT22;6145;50.192;10.064;2023-09-19T14:28:29;22.80;56.60
12164;DHT22;6145;50.192;10.064;2023-09-19T14:30:56;23.30;57.10
12164;DHT22;6145;50.192;10.064;2023-09-19T14:33:25;23.00;57.10
12164;DHT22;6145;50.192;10.064;2023-09-19T14:35:52;22.90;55.70
12164;DHT22;6145;50.192;10.064;2023-09-19T14:38:19;23.20;56.00
12164;DHT22;6145;50.192;10.064;2023-09-19T14:40:46;22.70;55.20
12164;DHT22;6145;50.192;10.064;2023-09-19T14:43:15;22.70;55.50
12164;DHT22;6145;50.192;10.064;2023-09-19T14:45:42;22.60;55.90
12164;DHT22;6145;50.192;10.064;2023-09-19T14:48:09;22.70;56.00
12164;DHT22;6145;50.192;10.064;2023-09-19T14:50:37;22.60;56.20
12164;DHT22;6145;50.192;10.064;2023-09-19T14:53:04;22.60;57.00
12164;DHT22;6145;50.192;10.064;2023-09-19T14:55:36;22.60;57.20
12164;DHT22;6145;50.192;10.064;2023-09-19T14:58:07;22.60;56.90
12164;DHT22;6145;50.192;10.064;2023-09-19T15:00:34;22.70;57.90
12164;DHT22;6145;50.192;10.064;2023-09-19T15:03:01;23.50;57.50
12164;DHT22;6145;50.192;10.064;2023-09-19T15:05:28;22.60;57.10
12164;DHT22;6145;50.192;10.064;2023-09-19T15:07:57;22.70;56.80
12164;DHT22;6145;50.192;10.064;2023-09-19T15:13:53;22.70;56.50
12164;DHT22;6145;50.192;10.064;2023-09-19T15:16:40;22.60;56.70
12164;DHT22;6145;50.192;10.064;2023-09-19T15:19:09;22.70;56.50
12164;DHT22;6145;50.192;10.064;2023-09-19T15:24:41;22.70;56.60
12164;DHT22;6145;50.192;10.064;2023-09-19T15:27:08;22.80;57.20
12164;DHT22;6145;50.192;10.064;2023-09-19T15:29:35;22.80;56.20
12164;DHT22;6145;50.192;10.064;2023-09-19T15:32:02;22.80;56.20
12164;DHT22;6145;50.192;10.064;2023-09-19T15:37:35;22.70;56.40
12164;DHT22;6145;50.192;10.064;2023-09-19T15:40:04;22.90;57.20
12164;DHT22;6145;50.192;10.064;2023-09-19T15:42:34;22.80;56.80
12164;DHT22;6145;50.192;10.064;2023-09-19T17:06:29;21.80;59.90
12164;DHT22;6145;50.192;10.064;2023-09-19T17:08:56;21.70;60.40
12164;DHT22;6145;50.192;10.064;2023-09-19T17:11:24;21.60;60.60
12164;DHT22;6145;50.192;10.064;2023-09-19T17:13:51;21.60;61.00
12164;DHT22;6145;50.192;10.064;2023-09-19T17:16:48;21.50;61.20
12164;DHT22;6145;50.192;10.064;2023-09-19T17:19:15;21.50;61.80
12164;DHT22;6145;50.192;10.064;2023-09-19T17:21:43;22.00;62.90
12164;DHT22;6145;50.192;10.064;2023-09-19T17:24:10;21.50;63.00
12164;DHT22;6145;50.192;10.064;2023-09-19T17:26:38;22.00;63.90
12164;DHT22;6145;50.192;10.064;2023-09-19T17:29:07;21.50;63.80
12164;DHT22;6145;50.192;10.064;2023-09-19T17:31:35;21.50;64.30
12164;DHT22;6145;50.192;10.064;2023-09-19T17:34:04;21.30;64.70
12164;DHT22;6145;50.192;10.064;2023-09-19T17:36:31;22.30;65.80
12164;DHT22;6145;50.192;10.064;2023-09-19T17:38:59;21.20;65.00
12164;DHT22;6145;50.192;10.064;2023-09-19T17:41:32;21.30;65.40
12164;DHT22;6145;50.192;10.064;2023-09-19T17:43:59;21.20;65.70
12164;DHT22;6145;50.192;10.064;2023-09-19T17:46:27;21.20;65.90
12164;DHT22;6145;50.192;10.064;2023-09-19T17:48:56;21.10;66.10
12164;DHT22;6145;50.192;10.064;2023-09-19T17:51:23;21.00;66.20
12164;DHT22;6145;50.192;10.064;2023-09-19T17:53:50;21.10;66.70
12164;DHT22;6145;50.192;10.064;2023-09-19T17:56:19;20.90;66.50
12164;DHT22;6145;50.192;10.064;2023-09-19T17:59:01;20.90;66.70
12164;DHT22;6145;50.192;10.064;2023-09-19T18:01:28;20.90;67.00
12164;DHT22;6145;50.192;10.064;2023-09-19T18:03:57;20.70;67.20
